sensor_id;sensor_type;location;lat;lon;timestamp;P1;durP1;ratioP1;P2;durP2;ratioP2
64826;SDS011;51265;53.972;12.286;2022-10-26T00:02:20;25.25;;;10.32;;
64826;SDS011;51265;53.972;12.286;2022-10-26T00:04:46;23.98;;;10.02;;
64826;SDS011;51265;53.972;12.286;2022-10-26T00:07:12;22.35;;;9.80;;
64826;SDS011;51265;53.972;12.286;2022-10-26T00:09:38;20.50;;;10.02;;
64826;SDS011;51265;53.972;12.286;2022-10-26T00:12:03;23.40;;;10.75;;
64826;SDS011;51265;53.972;12.286;2022-10-26T00:14:29;23.30;;;11.13;;
64826;SDS011;51265;53.972;12.286;2022-10-26T00:16:55;27.55;;;11.32;;
64826;SDS011;51265;53.972;12.286;2022-10-26T00:19:21;22.40;;;11.82;;
64826;SDS011;51265;53.972;12.286;2022-10-26T00:21:47;27.85;;;11.30;;
64826;SDS011;51265;53.972;12.286;2022-10-26T00:24:13;25.90;;;10.82;;
64826;SDS011;51265;53.972;12.286;2022-10-26T00:26:39;25.23;;;11.27;;
64826;SDS011;51265;53.972;12.286;2022-10-26T00:29:05;24.10;;;11.32;;
64826;SDS011;51265;53.972;12.286;2022-10-26T00:31:32;28.92;;;11.40;;
64826;SDS011;51265;53.972;12.286;2022-10-26T00:33:58;22.17;;;10.55;;
64826;SDS011;51265;53.972;12.286;2022-10-26T00:36:24;19.55;;;9.90;;
64826;SDS011;51265;53.972;12.286;2022-10-26T00:38:54;14.25;;;8.85;;
64826;SDS011;51265;53.972;12.286;2022-10-26T00:41:21;16.05;;;8.65;;
64826;SDS011;51265;53.972;12.286;2022-10-26T00:43:49;15.55;;;8.50;;
64826;SDS011;51265;53.972;12.286;2022-10-26T00:46:19;20.17;;;8.68;;
64826;SDS011;51265;53.972;12.286;2022-10-26T00:48:49;16.25;;;8.77;;
64826;SDS011;51265;53.972;12.286;2022-10-26T00:51:19;16.50;;;8.85;;
64826;SDS011;51265;53.972;12.286;2022-10-26T00:53:58;15.65;;;8.73;;
64826;SDS011;51265;53.972;12.286;2022-10-26T00:56:27;14.68;;;8.32;;
64826;SDS011;51265;53.972;12.286;2022-10-26T00:58:54;17.02;;;8.45;;
64826;SDS011;51265;53.972;12.286;2022-10-26T01:01:24;14.52;;;8.00;;
64826;SDS011;51265;53.972;12.286;2022-10-26T01:03:50;15.48;;;8.07;;
64826;SDS011;51265;53.972;12.286;2022-10-26T01:06:16;14.95;;;8.82;;
64826;SDS011;51265;53.972;12.286;2022-10-26T01:08:42;16.33;;;8.00;;
64826;SDS011;51265;53.972;12.286;2022-10-26T01:11:08;17.65;;;8.98;;
64826;SDS011;51265;53.972;12.286;2022-10-26T01:13:35;13.23;;;9.05;;
64826;SDS011;51265;53.972;12.286;2022-10-26T01:21:37;14.57;;;7.50;;
64826;SDS011;51265;53.972;12.286;2022-10-26T01:24:24;13.07;;;7.72;;
64826;SDS011;51265;53.972;12.286;2022-10-26T01:27:22;13.68;;;7.82;;
64826;SDS011;51265;53.972;12.286;2022-10-26T01:35:20;21.48;;;9.38;;
64826;SDS011;51265;53.972;12.286;2022-10-26T01:37:53;22.05;;;8.77;;
64826;SDS011;51265;53.972;12.286;2022-10-26T01:40:28;12.85;;;8.57;;
64826;SDS011;51265;53.972;12.286;2022-10-26T01:43:01;17.05;;;8.10;;
64826;SDS011;51265;53.972;12.286;2022-10-26T01:45:44;14.40;;;7.97;;
64826;SDS011;51265;53.972;12.286;2022-10-26T01:48:13;14.55;;;8.05;;
64826;SDS011;51265;53.972;12.286;2022-10-26T01:50:42;12.65;;;7.40;;
64826;SDS011;51265;53.972;12.286;2022-10-26T01:53:12;11.98;;;7.13;;
64826;SDS011;51265;53.972;12.286;2022-10-26T02:01:15;10.73;;;7.22;;
64826;SDS011;51265;53.972;12.286;2022-10-26T02:06:35;15.75;;;8.52;;
64826;SDS011;51265;53.972;12.286;2022-10-26T02:09:10;14.30;;;8.45;;
64826;SDS011;51265;53.972;12.286;2022-10-26T02:11:45;16.77;;;8.52;;
64826;SDS011;51265;53.972;12.286;2022-10-26T02:14:28;14.90;;;9.57;;
64826;SDS011;51265;53.972;12.286;2022-10-26T02:20:27;17.77;;;8.68;;
64826;SDS011;51265;53.972;12.286;2022-10-26T02:23:00;21.13;;;9.27;;
64826;SDS011;51265;53.972;12.286;2022-10-26T02:25:29;19.85;;;9.38;;
64826;SDS011;51265;53.972;12.286;2022-10-26T02:27:59;17.27;;;9.18;;
64826;SDS011;51265;53.972;12.286;2022-10-26T02:30:30;17.38;;;9.48;;
64826;SDS011;51265;53.972;12.286;2022-10-26T02:32:58;22.52;;;9.98;;
64826;SDS011;51265;53.972;12.286;2022-10-26T02:35:26;18.52;;;8.73;;
64826;SDS011;51265;53.972;12.286;2022-10-26T02:37:56;19.25;;;9.35;;
64826;SDS011;51265;53.972;12.286;2022-10-26T02:40:26;23.48;;;9.75;;
64826;SDS011;51265;53.972;12.286;2022-10-26T02:42:53;19.75;;;9.07;;
64826;SDS011;51265;53.972;12.286;2022-10-26T02:45:25;18.42;;;9.38;;
64826;SDS011;51265;53.972;12.286;2022-10-26T02:47:54;20.58;;;8.52;;
64826;SDS011;51265;53.972;12.286;2022-10-26T02:50:23;20.58;;;9.75;;
64826;SDS011;51265;53.972;12.286;2022-10-26T02:53:03;22.15;;;10.10;;
64826;SDS011;51265;53.972;12.286;2022-10-26T02:55:37;26.02;;;10.13;;
64826;SDS011;51265;53.972;12.286;2022-10-26T02:58:13;28.48;;;10.85;;
64826;SDS011;51265;53.972;12.286;2022-10-26T03:00:43;20.75;;;9.50;;
64826;SDS011;51265;53.972;12.286;2022-10-26T03:03:10;18.60;;;9.23;;
64826;SDS011;51265;53.972;12.286;2022-10-26T03:05:39;19.48;;;9.38;;
64826;SDS011;51265;53.972;12.286;2022-10-26T03:08:07;20.48;;;9.43;;
64826;SDS011;51265;53.972;12.286;2022-10-26T03:10:34;20.05;;;9.57;;
64826;SDS011;51265;53.972;12.286;2022-10-26T03:13:07;18.33;;;8.73;;
64826;SDS011;51265;53.972;12.286;2022-10-26T03:15:33;15.02;;;8.65;;
64826;SDS011;51265;53.972;12.286;2022-10-26T03:17:59;21.65;;;9.02;;
64826;SDS011;51265;53.972;12.286;2022-10-26T03:20:25;13.90;;;8.82;;
64826;SDS011;51265;53.972;12.286;2022-10-26T03:22:51;19.52;;;9.32;;
64826;SDS011;51265;53.972;12.286;2022-10-26T03:25:17;20.15;;;9.38;;
64826;SDS011;51265;53.972;12.286;2022-10-26T03:27:44;21.20;;;9.25;;
64826;SDS011;51265;53.972;12.286;2022-10-26T03:30:13;16.63;;;9.20;;
64826;SDS011;51265;53.972;12.286;2022-10-26T03:32:39;20.10;;;9.43;;
64826;SDS011;51265;53.972;12.286;2022-10-26T03:35:05;20.10;;;8.90;;
64826;SDS011;51265;53.972;12.286;2022-10-26T03:37:31;18.42;;;9.15;;
64826;SDS011;51265;53.972;12.286;2022-10-26T03:39:57;15.43;;;9.27;;
64826;SDS011;51265;53.972;12.286;2022-10-26T03:42:23;17.90;;;9.27;;
64826;SDS011;51265;53.972;12.286;2022-10-26T03:44:48;17.38;;;8.23;;
64826;SDS011;51265;53.972;12.286;2022-10-26T03:47:14;19.75;;;9.13;;
64826;SDS011;51265;53.972;12.286;2022-10-26T03:49:40;16.75;;;8.25;;
64826;SDS011;51265;53.972;12.286;2022-10-26T03:52:06;15.60;;;8.55;;
64826;SDS011;51265;53.972;12.286;2022-10-26T03:54:32;16.13;;;9.02;;
64826;SDS011;51265;53.972;12.286;2022-10-26T03:56:58;16.48;;;8.45;;
64826;SDS011;51265;53.972;12.286;2022-10-26T03:59:23;17.85;;;9.57;;
64826;SDS011;51265;53.972;12.286;2022-10-26T04:01:49;25.65;;;11.48;;
64826;SDS011;51265;53.972;12.286;2022-10-26T04:04:15;25.02;;;11.52;;
64826;SDS011;51265;53.972;12.286;2022-10-26T04:06:41;21.70;;;9.35;;
64826;SDS011;51265;53.972;12.286;2022-10-26T04:09:06;23.27;;;10.63;;
64826;SDS011;51265;53.972;12.286;2022-10-26T04:11:32;20.85;;;10.20;;
64826;SDS011;51265;53.972;12.286;2022-10-26T04:13:58;22.70;;;10.10;;
64826;SDS011;51265;53.972;12.286;2022-10-26T04:16:25;20.10;;;9.10;;
64826;SDS011;51265;53.972;12.286;2022-10-26T04:18:51;21.27;;;9.93;;
64826;SDS011;51265;53.972;12.286;2022-10-26T04:21:17;21.60;;;9.90;;
64826;SDS011;51265;53.972;12.286;2022-10-26T04:23:42;20.52;;;9.25;;
64826;SDS011;51265;53.972;12.286;2022-10-26T04:26:08;20.58;;;9.40;;
64826;SDS011;51265;53.972;12.286;2022-10-26T04:28:34;24.30;;;10.50;;
64826;SDS011;51265;53.972;12.286;2022-10-26T04:31:00;28.65;;;9.82;;
64826;SDS011;51265;53.972;12.286;2022-10-26T04:33:26;17.95;;;9.55;;
64826;SDS011;51265;53.972;12.286;2022-10-26T04:35:51;17.25;;;9.13;;
64826;SDS011;51265;53.972;12.286;2022-10-26T04:38:17;18.42;;;9.80;;
64826;SDS011;51265;53.972;12.286;2022-10-26T04:40:43;19.52;;;9.35;;
64826;SDS011;51265;53.972;12.286;2022-10-26T04:43:09;20.05;;;9.88;;
64826;SDS011;51265;53.972;12.286;2022-10-26T04:45:34;18.13;;;9.48;;
64826;SDS011;51265;53.972;12.286;2022-10-26T04:48:02;18.40;;;8.85;;
64826;SDS011;51265;53.972;12.286;2022-10-26T04:50:29;16.92;;;8.82;;
64826;SDS011;51265;53.972;12.286;2022-10-26T04:52:56;20.00;;;9.63;;
64826;SDS011;51265;53.972;12.286;2022-10-26T04:55:22;33.63;;;19.73;;
64826;SDS011;51265;53.972;12.286;2022-10-26T04:57:48;109.90;;;70.53;;
64826;SDS011;51265;53.972;12.286;2022-10-26T05:00:14;86.28;;;51.83;;
64826;SDS011;51265;53.972;12.286;2022-10-26T05:02:40;46.83;;;27.80;;
64826;SDS011;51265;53.972;12.286;2022-10-26T05:05:06;34.85;;;20.13;;
64826;SDS011;51265;53.972;12.286;2022-10-26T05:07:32;30.98;;;17.50;;
64826;SDS011;51265;53.972;12.286;2022-10-26T05:09:57;21.08;;;12.38;;
64826;SDS011;51265;53.972;12.286;2022-10-26T05:12:23;24.23;;;11.98;;
64826;SDS011;51265;53.972;12.286;2022-10-26T05:14:49;17.23;;;10.13;;
64826;SDS011;51265;53.972;12.286;2022-10-26T05:17:15;18.42;;;10.20;;
64826;SDS011;51265;53.972;12.286;2022-10-26T05:19:41;21.02;;;10.75;;
64826;SDS011;51265;53.972;12.286;2022-10-26T05:22:07;18.33;;;9.68;;
64826;SDS011;51265;53.972;12.286;2022-10-26T05:24:32;15.65;;;9.18;;
64826;SDS011;51265;53.972;12.286;2022-10-26T05:26:58;19.50;;;9.50;;
64826;SDS011;51265;53.972;12.286;2022-10-26T05:29:24;20.13;;;9.32;;
64826;SDS011;51265;53.972;12.286;2022-10-26T05:31:50;15.15;;;8.57;;
64826;SDS011;51265;53.972;12.286;2022-10-26T05:34:16;18.80;;;9.50;;
64826;SDS011;51265;53.972;12.286;2022-10-26T05:36:42;19.02;;;9.18;;
64826;SDS011;51265;53.972;12.286;2022-10-26T05:39:08;18.15;;;9.77;;
64826;SDS011;51265;53.972;12.286;2022-10-26T05:41:33;19.23;;;9.40;;
64826;SDS011;51265;53.972;12.286;2022-10-26T05:43:59;16.08;;;9.25;;
64826;SDS011;51265;53.972;12.286;2022-10-26T05:46:25;21.60;;;11.82;;
64826;SDS011;51265;53.972;12.286;2022-10-26T05:48:51;24.05;;;14.02;;
64826;SDS011;51265;53.972;12.286;2022-10-26T05:51:16;29.38;;;16.70;;
64826;SDS011;51265;53.972;12.286;2022-10-26T05:53:42;36.78;;;20.90;;
64826;SDS011;51265;53.972;12.286;2022-10-26T05:56:16;25.02;;;14.40;;
64826;SDS011;51265;53.972;12.286;2022-10-26T05:58:48;23.73;;;11.98;;
64826;SDS011;51265;53.972;12.286;2022-10-26T06:01:24;19.77;;;11.15;;
64826;SDS011;51265;53.972;12.286;2022-10-26T06:06:47;17.80;;;9.45;;
64826;SDS011;51265;53.972;12.286;2022-10-26T06:09:19;15.40;;;7.75;;
64826;SDS011;51265;53.972;12.286;2022-10-26T06:11:45;11.75;;;8.00;;
64826;SDS011;51265;53.972;12.286;2022-10-26T06:14:12;12.70;;;7.28;;
64826;SDS011;51265;53.972;12.286;2022-10-26T06:16:46;13.57;;;7.32;;
64826;SDS011;51265;53.972;12.286;2022-10-26T06:30:25;15.95;;;8.35;;
64826;SDS011;51265;53.972;12.286;2022-10-26T06:32:51;15.00;;;7.47;;
64826;SDS011;51265;53.972;12.286;2022-10-26T06:38:09;17.25;;;8.82;;
64826;SDS011;51265;53.972;12.286;2022-10-26T06:40:39;21.25;;;8.75;;
64826;SDS011;51265;53.972;12.286;2022-10-26T06:43:12;15.52;;;8.75;;
64826;SDS011;51265;53.972;12.286;2022-10-26T06:51:26;23.80;;;10.02;;
64826;SDS011;51265;53.972;12.286;2022-10-26T06:54:06;28.58;;;11.27;;
64826;SDS011;51265;53.972;12.286;2022-10-26T06:56:41;20.27;;;10.48;;
64826;SDS011;51265;53.972;12.286;2022-10-26T06:59:12;27.92;;;11.02;;
64826;SDS011;51265;53.972;12.286;2022-10-26T07:01:44;21.02;;;10.85;;
64826;SDS011;51265;53.972;12.286;2022-10-26T07:04:10;31.05;;;16.73;;
64826;SDS011;51265;53.972;12.286;2022-10-26T07:06:36;39.50;;;17.33;;
64826;SDS011;51265;53.972;12.286;2022-10-26T07:09:02;26.98;;;13.23;;
64826;SDS011;51265;53.972;12.286;2022-10-26T07:11:27;28.48;;;11.77;;
64826;SDS011;51265;53.972;12.286;2022-10-26T07:13:53;30.85;;;12.57;;
64826;SDS011;51265;53.972;12.286;2022-10-26T07:16:19;23.58;;;12.50;;
64826;SDS011;51265;53.972;12.286;2022-10-26T07:18:46;25.70;;;11.95;;
64826;SDS011;51265;53.972;12.286;2022-10-26T07:21:12;24.80;;;11.57;;
64826;SDS011;51265;53.972;12.286;2022-10-26T07:23:38;28.50;;;12.57;;
64826;SDS011;51265;53.972;12.286;2022-10-26T07:26:04;25.75;;;12.02;;
64826;SDS011;51265;53.972;12.286;2022-10-26T07:28:30;25.75;;;12.05;;
64826;SDS011;51265;53.972;12.286;2022-10-26T07:30:57;28.20;;;12.85;;
64826;SDS011;51265;53.972;12.286;2022-10-26T07:33:23;27.77;;;12.52;;
64826;SDS011;51265;53.972;12.286;2022-10-26T07:35:49;28.38;;;13.18;;
64826;SDS011;51265;53.972;12.286;2022-10-26T07:38:14;26.75;;;13.32;;
64826;SDS011;51265;53.972;12.286;2022-10-26T07:40:40;28.70;;;13.98;;
64826;SDS011;51265;53.972;12.286;2022-10-26T07:43:07;33.15;;;13.75;;
64826;SDS011;51265;53.972;12.286;2022-10-26T07:45:32;29.33;;;14.73;;
64826;SDS011;51265;53.972;12.286;2022-10-26T07:47:58;40.85;;;14.00;;
64826;SDS011;51265;53.972;12.286;2022-10-26T07:50:24;34.90;;;14.43;;
64826;SDS011;51265;53.972;12.286;2022-10-26T07:52:50;32.08;;;14.95;;
64826;SDS011;51265;53.972;12.286;2022-10-26T07:55:16;43.55;;;16.83;;
64826;SDS011;51265;53.972;12.286;2022-10-26T07:57:42;33.80;;;15.77;;
64826;SDS011;51265;53.972;12.286;2022-10-26T08:00:08;39.55;;;17.73;;
64826;SDS011;51265;53.972;12.286;2022-10-26T08:02:34;40.40;;;17.42;;
64826;SDS011;51265;53.972;12.286;2022-10-26T08:05:00;42.63;;;17.95;;
64826;SDS011;51265;53.972;12.286;2022-10-26T08:07:27;39.28;;;17.13;;
64826;SDS011;51265;53.972;12.286;2022-10-26T08:09:52;44.90;;;18.00;;
64826;SDS011;51265;53.972;12.286;2022-10-26T08:12:19;34.78;;;16.85;;
64826;SDS011;51265;53.972;12.286;2022-10-26T08:14:45;40.50;;;17.17;;
64826;SDS011;51265;53.972;12.286;2022-10-26T08:17:11;40.08;;;18.05;;
64826;SDS011;51265;53.972;12.286;2022-10-26T08:19:37;38.47;;;18.10;;
64826;SDS011;51265;53.972;12.286;2022-10-26T08:22:03;37.13;;;16.23;;
64826;SDS011;51265;53.972;12.286;2022-10-26T08:24:28;35.85;;;17.52;;
64826;SDS011;51265;53.972;12.286;2022-10-26T08:26:54;35.40;;;17.58;;
64826;SDS011;51265;53.972;12.286;2022-10-26T08:29:20;42.58;;;17.70;;
64826;SDS011;51265;53.972;12.286;2022-10-26T08:31:46;35.75;;;17.65;;
64826;SDS011;51265;53.972;12.286;2022-10-26T08:34:13;40.38;;;18.40;;
64826;SDS011;51265;53.972;12.286;2022-10-26T08:36:39;36.28;;;17.52;;
64826;SDS011;51265;53.972;12.286;2022-10-26T08:39:04;35.97;;;17.85;;
64826;SDS011;51265;53.972;12.286;2022-10-26T08:41:37;35.25;;;17.58;;
64826;SDS011;51265;53.972;12.286;2022-10-26T08:44:10;34.25;;;18.15;;
64826;SDS011;51265;53.972;12.286;2022-10-26T08:46:45;37.05;;;17.58;;
64826;SDS011;51265;53.972;12.286;2022-10-26T08:49:22;34.90;;;17.80;;
64826;SDS011;51265;53.972;12.286;2022-10-26T08:51:54;34.92;;;16.85;;
64826;SDS011;51265;53.972;12.286;2022-10-26T08:54:40;33.50;;;17.45;;
64826;SDS011;51265;53.972;12.286;2022-10-26T08:57:16;29.60;;;16.83;;
64826;SDS011;51265;53.972;12.286;2022-10-26T08:59:52;29.30;;;17.02;;
64826;SDS011;51265;53.972;12.286;2022-10-26T09:02:22;31.13;;;17.58;;
64826;SDS011;51265;53.972;12.286;2022-10-26T09:04:49;30.83;;;17.15;;
64826;SDS011;51265;53.972;12.286;2022-10-26T09:07:19;34.83;;;16.73;;
64826;SDS011;51265;53.972;12.286;2022-10-26T09:18:44;29.88;;;16.17;;
64826;SDS011;51265;53.972;12.286;2022-10-26T09:24:33;25.48;;;15.02;;
64826;SDS011;51265;53.972;12.286;2022-10-26T09:27:18;24.33;;;15.15;;
64826;SDS011;51265;53.972;12.286;2022-10-26T09:29:48;25.48;;;14.50;;
64826;SDS011;51265;53.972;12.286;2022-10-26T09:32:20;22.23;;;14.35;;
64826;SDS011;51265;53.972;12.286;2022-10-26T09:34:54;22.15;;;14.52;;
64826;SDS011;51265;53.972;12.286;2022-10-26T09:37:28;22.23;;;13.85;;
64826;SDS011;51265;53.972;12.286;2022-10-26T09:40:11;22.98;;;14.25;;
64826;SDS011;51265;53.972;12.286;2022-10-26T09:42:43;18.33;;;11.50;;
64826;SDS011;51265;53.972;12.286;2022-10-26T09:45:17;19.05;;;12.32;;
64826;SDS011;51265;53.972;12.286;2022-10-26T09:47:48;19.35;;;11.82;;
64826;SDS011;51265;53.972;12.286;2022-10-26T09:50:26;22.55;;;12.10;;
64826;SDS011;51265;53.972;12.286;2022-10-26T09:52:56;20.15;;;11.75;;
64826;SDS011;51265;53.972;12.286;2022-10-26T09:55:22;15.30;;;11.18;;
64826;SDS011;51265;53.972;12.286;2022-10-26T09:57:51;19.58;;;12.70;;
64826;SDS011;51265;53.972;12.286;2022-10-26T10:00:21;19.88;;;11.18;;
64826;SDS011;51265;53.972;12.286;2022-10-26T10:02:52;14.90;;;10.80;;
64826;SDS011;51265;53.972;12.286;2022-10-26T10:05:26;25.70;;;9.43;;
64826;SDS011;51265;53.972;12.286;2022-10-26T10:08:08;15.82;;;9.55;;
64826;SDS011;51265;53.972;12.286;2022-10-26T10:10:36;13.88;;;9.23;;
64826;SDS011;51265;53.972;12.286;2022-10-26T10:13:15;13.73;;;8.10;;
64826;SDS011;51265;53.972;12.286;2022-10-26T10:15:56;16.55;;;8.30;;
64826;SDS011;51265;53.972;12.286;2022-10-26T10:18:28;17.10;;;8.52;;
64826;SDS011;51265;53.972;12.286;2022-10-26T10:20:55;11.52;;;7.13;;
64826;SDS011;51265;53.972;12.286;2022-10-26T10:23:27;12.43;;;7.25;;
64826;SDS011;51265;53.972;12.286;2022-10-26T10:25:58;15.02;;;7.57;;
64826;SDS011;51265;53.972;12.286;2022-10-26T10:28:33;9.65;;;6.90;;
64826;SDS011;51265;53.972;12.286;2022-10-26T10:31:01;11.60;;;6.80;;
64826;SDS011;51265;53.972;12.286;2022-10-26T10:33:42;11.90;;;6.50;;
64826;SDS011;51265;53.972;12.286;2022-10-26T10:36:14;11.30;;;6.22;;
64826;SDS011;51265;53.972;12.286;2022-10-26T10:38:43;9.73;;;5.78;;
64826;SDS011;51265;53.972;12.286;2022-10-26T10:41:18;12.82;;;6.57;;
64826;SDS011;51265;53.972;12.286;2022-10-26T10:43:51;12.27;;;5.80;;
64826;SDS011;51265;53.972;12.286;2022-10-26T10:46:22;12.65;;;7.65;;
64826;SDS011;51265;53.972;12.286;2022-10-26T10:48:53;14.95;;;7.07;;
64826;SDS011;51265;53.972;12.286;2022-10-26T10:51:26;11.40;;;6.38;;
64826;SDS011;51265;53.972;12.286;2022-10-26T10:53:53;10.27;;;5.40;;
64826;SDS011;51265;53.972;12.286;2022-10-26T10:56:39;8.95;;;5.47;;
64826;SDS011;51265;53.972;12.286;2022-10-26T11:04:57;12.00;;;5.60;;
64826;SDS011;51265;53.972;12.286;2022-10-26T11:07:31;13.55;;;5.30;;
64826;SDS011;51265;53.972;12.286;2022-10-26T11:10:04;6.20;;;4.50;;
64826;SDS011;51265;53.972;12.286;2022-10-26T11:12:36;8.15;;;4.07;;
64826;SDS011;51265;53.972;12.286;2022-10-26T11:15:11;6.20;;;3.53;;
64826;SDS011;51265;53.972;12.286;2022-10-26T11:20:23;7.28;;;4.00;;
64826;SDS011;51265;53.972;12.286;2022-10-26T11:23:02;5.97;;;3.65;;
64826;SDS011;51265;53.972;12.286;2022-10-26T11:25:40;9.93;;;4.25;;
64826;SDS011;51265;53.972;12.286;2022-10-26T11:28:18;7.10;;;3.95;;
64826;SDS011;51265;53.972;12.286;2022-10-26T11:30:59;6.75;;;3.00;;
64826;SDS011;51265;53.972;12.286;2022-10-26T11:33:31;6.65;;;3.17;;
64826;SDS011;51265;53.972;12.286;2022-10-26T11:36:11;8.85;;;4.93;;
64826;SDS011;51265;53.972;12.286;2022-10-26T11:38:49;7.05;;;4.25;;
64826;SDS011;51265;53.972;12.286;2022-10-26T11:41:28;5.35;;;3.22;;
64826;SDS011;51265;53.972;12.286;2022-10-26T11:44:01;6.85;;;3.00;;
64826;SDS011;51265;53.972;12.286;2022-10-26T11:46:38;4.25;;;2.50;;
64826;SDS011;51265;53.972;12.286;2022-10-26T11:49:18;7.65;;;3.95;;
64826;SDS011;51265;53.972;12.286;2022-10-26T11:52:32;8.35;;;4.05;;
64826;SDS011;51265;53.972;12.286;2022-10-26T11:54:53;8.27;;;2.90;;
64826;SDS011;51265;53.972;12.286;2022-10-26T11:57:21;8.20;;;2.58;;
64826;SDS011;51265;53.972;12.286;2022-10-26T11:59:49;8.13;;;2.35;;
64826;SDS011;51265;53.972;12.286;2022-10-26T12:02:20;6.13;;;2.50;;
64826;SDS011;51265;53.972;12.286;2022-10-26T12:04:58;5.95;;;2.40;;
64826;SDS011;51265;53.972;12.286;2022-10-26T12:07:30;6.85;;;2.33;;
64826;SDS011;51265;53.972;12.286;2022-10-26T12:09:58;8.85;;;2.50;;
64826;SDS011;51265;53.972;12.286;2022-10-26T12:12:47;7.47;;;2.22;;
64826;SDS011;51265;53.972;12.286;2022-10-26T12:15:31;4.50;;;1.70;;
64826;SDS011;51265;53.972;12.286;2022-10-26T12:23:11;4.68;;;1.60;;
64826;SDS011;51265;53.972;12.286;2022-10-26T12:25:38;3.65;;;1.65;;
64826;SDS011;51265;53.972;12.286;2022-10-26T12:28:03;7.00;;;1.90;;
64826;SDS011;51265;53.972;12.286;2022-10-26T12:30:30;5.07;;;1.88;;
64826;SDS011;51265;53.972;12.286;2022-10-26T12:32:59;5.38;;;1.90;;
64826;SDS011;51265;53.972;12.286;2022-10-26T12:35:41;5.97;;;1.73;;
64826;SDS011;51265;53.972;12.286;2022-10-26T12:48:39;2.85;;;1.50;;
64826;SDS011;51265;53.972;12.286;2022-10-26T12:53:48;3.80;;;1.30;;
64826;SDS011;51265;53.972;12.286;2022-10-26T12:56:15;5.20;;;1.70;;
64826;SDS011;51265;53.972;12.286;2022-10-26T12:58:48;3.33;;;1.40;;
64826;SDS011;51265;53.972;12.286;2022-10-26T13:01:32;4.97;;;1.48;;
64826;SDS011;51265;53.972;12.286;2022-10-26T13:06:36;5.15;;;1.75;;
64826;SDS011;51265;53.972;12.286;2022-10-26T13:09:23;7.07;;;1.80;;
64826;SDS011;51265;53.972;12.286;2022-10-26T13:11:54;3.42;;;1.20;;
64826;SDS011;51265;53.972;12.286;2022-10-26T13:14:30;5.82;;;1.40;;
64826;SDS011;51265;53.972;12.286;2022-10-26T13:17:03;4.07;;;1.60;;
64826;SDS011;51265;53.972;12.286;2022-10-26T13:19:38;8.02;;;1.20;;
64826;SDS011;51265;53.972;12.286;2022-10-26T13:22:13;7.80;;;1.70;;
64826;SDS011;51265;53.972;12.286;2022-10-26T13:24:46;3.42;;;1.23;;
64826;SDS011;51265;53.972;12.286;2022-10-26T13:32:30;3.67;;;1.10;;
64826;SDS011;51265;53.972;12.286;2022-10-26T13:35:00;4.68;;;1.27;;
64826;SDS011;51265;53.972;12.286;2022-10-26T13:37:28;3.05;;;1.20;;
64826;SDS011;51265;53.972;12.286;2022-10-26T13:39:57;3.83;;;1.30;;
64826;SDS011;51265;53.972;12.286;2022-10-26T13:42:38;4.68;;;1.33;;
64826;SDS011;51265;53.972;12.286;2022-10-26T13:45:12;6.43;;;1.60;;
64826;SDS011;51265;53.972;12.286;2022-10-26T13:47:44;3.60;;;1.52;;
64826;SDS011;51265;53.972;12.286;2022-10-26T13:50:19;5.25;;;1.80;;
64826;SDS011;51265;53.972;12.286;2022-10-26T13:53:13;4.30;;;1.67;;
64826;SDS011;51265;53.972;12.286;2022-10-26T13:56:47;3.13;;;1.45;;
64826;SDS011;51265;53.972;12.286;2022-10-26T13:58:58;3.60;;;1.33;;
64826;SDS011;51265;53.972;12.286;2022-10-26T14:01:28;8.02;;;1.50;;
64826;SDS011;51265;53.972;12.286;2022-10-26T14:03:55;2.15;;;1.15;;
64826;SDS011;51265;53.972;12.286;2022-10-26T14:06:34;5.00;;;1.52;;
64826;SDS011;51265;53.972;12.286;2022-10-26T14:09:04;4.20;;;1.55;;
64826;SDS011;51265;53.972;12.286;2022-10-26T14:11:42;6.82;;;2.05;;
64826;SDS011;51265;53.972;12.286;2022-10-26T14:16:46;3.95;;;1.50;;
64826;SDS011;51265;53.972;12.286;2022-10-26T14:19:22;2.30;;;1.40;;
64826;SDS011;51265;53.972;12.286;2022-10-26T14:21:50;5.93;;;1.70;;
64826;SDS011;51265;53.972;12.286;2022-10-26T14:24:30;3.35;;;1.58;;
64826;SDS011;51265;53.972;12.286;2022-10-26T14:27:02;5.28;;;1.60;;
64826;SDS011;51265;53.972;12.286;2022-10-26T14:29:31;3.80;;;1.58;;
64826;SDS011;51265;53.972;12.286;2022-10-26T14:32:20;3.20;;;1.77;;
64826;SDS011;51265;53.972;12.286;2022-10-26T14:34:47;4.18;;;1.85;;
64826;SDS011;51265;53.972;12.286;2022-10-26T14:39:54;3.75;;;1.90;;
64826;SDS011;51265;53.972;12.286;2022-10-26T14:44:46;4.38;;;1.88;;
64826;SDS011;51265;53.972;12.286;2022-10-26T14:47:14;4.20;;;1.45;;
64826;SDS011;51265;53.972;12.286;2022-10-26T14:49:48;4.53;;;1.45;;
64826;SDS011;51265;53.972;12.286;2022-10-26T14:52:17;3.63;;;1.80;;
64826;SDS011;51265;53.972;12.286;2022-10-26T14:57:36;3.88;;;1.77;;
64826;SDS011;51265;53.972;12.286;2022-10-26T15:02:45;3.15;;;2.45;;
64826;SDS011;51265;53.972;12.286;2022-10-26T15:05:17;4.82;;;2.50;;
64826;SDS011;51265;53.972;12.286;2022-10-26T15:07:43;6.15;;;2.50;;
64826;SDS011;51265;53.972;12.286;2022-10-26T15:15:49;7.32;;;2.83;;
64826;SDS011;51265;53.972;12.286;2022-10-26T15:20:51;5.63;;;2.08;;
64826;SDS011;51265;53.972;12.286;2022-10-26T15:23:18;4.88;;;2.63;;
64826;SDS011;51265;53.972;12.286;2022-10-26T15:25:58;6.03;;;1.85;;
64826;SDS011;51265;53.972;12.286;2022-10-26T15:31:02;3.28;;;1.90;;
64826;SDS011;51265;53.972;12.286;2022-10-26T15:36:16;5.07;;;2.20;;
64826;SDS011;51265;53.972;12.286;2022-10-26T15:38:43;3.75;;;2.47;;
64826;SDS011;51265;53.972;12.286;2022-10-26T15:41:14;3.97;;;2.65;;
64826;SDS011;51265;53.972;12.286;2022-10-26T15:43:48;5.90;;;2.25;;
64826;SDS011;51265;53.972;12.286;2022-10-26T15:46:14;9.25;;;2.35;;
64826;SDS011;51265;53.972;12.286;2022-10-26T15:48:41;6.40;;;2.65;;
64826;SDS011;51265;53.972;12.286;2022-10-26T15:51:10;5.45;;;2.80;;
64826;SDS011;51265;53.972;12.286;2022-10-26T15:53:38;6.72;;;2.72;;
64826;SDS011;51265;53.972;12.286;2022-10-26T15:56:04;4.68;;;2.40;;
64826;SDS011;51265;53.972;12.286;2022-10-26T15:58:45;3.85;;;2.28;;
64826;SDS011;51265;53.972;12.286;2022-10-26T16:01:13;3.05;;;1.95;;
64826;SDS011;51265;53.972;12.286;2022-10-26T16:03:41;6.15;;;2.53;;
64826;SDS011;51265;53.972;12.286;2022-10-26T16:06:07;5.55;;;2.80;;
64826;SDS011;51265;53.972;12.286;2022-10-26T16:08:38;6.30;;;2.67;;
64826;SDS011;51265;53.972;12.286;2022-10-26T16:11:04;8.55;;;3.00;;
64826;SDS011;51265;53.972;12.286;2022-10-26T16:13:30;4.35;;;2.50;;
64826;SDS011;51265;53.972;12.286;2022-10-26T16:15:56;4.60;;;2.33;;
64826;SDS011;51265;53.972;12.286;2022-10-26T16:18:22;3.85;;;2.70;;
64826;SDS011;51265;53.972;12.286;2022-10-26T16:20:48;5.75;;;3.28;;
64826;SDS011;51265;53.972;12.286;2022-10-26T16:23:14;4.65;;;3.45;;
64826;SDS011;51265;53.972;12.286;2022-10-26T16:25:43;5.72;;;3.40;;
64826;SDS011;51265;53.972;12.286;2022-10-26T16:28:12;8.02;;;4.10;;
64826;SDS011;51265;53.972;12.286;2022-10-26T16:30:40;6.85;;;4.47;;
64826;SDS011;51265;53.972;12.286;2022-10-26T16:33:06;51.65;;;38.50;;
64826;SDS011;51265;53.972;12.286;2022-10-26T16:35:32;65.95;;;45.17;;
64826;SDS011;51265;53.972;12.286;2022-10-26T16:37:58;18.92;;;12.57;;